createdAt,value
2019-01-03T00:01:22.420Z,9.67
2019-01-03T00:04:18.549Z,9.10
2019-01-03T00:07:12.767Z,9.00
2019-01-03T00:09:58.930Z,7.10
2019-01-03T00:12:40.403Z,7.90
2019-01-03T00:15:20.414Z,8.13
2019-01-03T00:18:16.802Z,8.10
2019-01-03T00:20:55.461Z,8.90
2019-01-03T00:23:50.630Z,8.87
2019-01-03T00:26:53.597Z,9.20
2019-01-03T00:29:45.425Z,8.82
2019-01-03T00:32:40.658Z,7.00
2019-01-03T00:35:46.619Z,7.72
2019-01-03T00:38:37.796Z,8.13
2019-01-03T00:41:28.549Z,8.13
2019-01-03T00:44:18.208Z,7.17
2019-01-03T00:47:10.856Z,6.00
2019-01-03T00:50:02.283Z,6.70
2019-01-03T00:52:42.556Z,7.47
2019-01-03T00:55:41.121Z,6.97
2019-01-03T00:58:35.511Z,7.57
2019-01-03T01:01:45.056Z,8.38
2019-01-03T01:04:41.491Z,7.47
2019-01-03T01:07:38.234Z,7.20
2019-01-03T01:10:35.182Z,8.60
2019-01-03T01:13:14.028Z,8.77
2019-01-03T01:15:53.290Z,10.25
2019-01-03T01:18:41.804Z,9.37
2019-01-03T01:21:31.881Z,10.53
2019-01-03T01:24:26.895Z,8.90
2019-01-03T01:27:09.259Z,7.37
2019-01-03T01:29:48.063Z,6.53
2019-01-03T01:32:37.925Z,7.43
2019-01-03T01:35:17.901Z,7.67
2019-01-03T01:38:04.863Z,7.33
2019-01-03T01:40:43.683Z,8.23
2019-01-03T01:43:21.978Z,6.80
2019-01-03T01:46:19.253Z,8.37
2019-01-03T01:49:15.995Z,9.07
2019-01-03T01:52:24.416Z,9.38
2019-01-03T01:55:13.473Z,9.27
2019-01-03T01:57:52.508Z,8.63
2019-01-03T02:00:32.030Z,8.13
2019-01-03T02:03:18.858Z,8.73
2019-01-03T02:06:05.341Z,7.67
2019-01-03T02:08:44.800Z,8.63
2019-01-03T02:11:32.832Z,9.17
2019-01-03T02:14:12.355Z,11.00
2019-01-03T02:17:23.348Z,10.80
2019-01-03T02:20:20.747Z,9.40
2019-01-03T02:23:27.947Z,9.80
2019-01-03T02:26:18.734Z,7.40
2019-01-03T02:29:12.222Z,6.67
2019-01-03T02:31:52.774Z,6.83
2019-01-03T02:34:31.609Z,6.93
2019-01-03T02:37:28.865Z,6.93
2019-01-03T02:40:26.836Z,7.47
2019-01-03T02:43:17.440Z,6.80
2019-01-03T02:46:06.155Z,7.30
2019-01-03T02:48:53.514Z,8.27
2019-01-03T02:51:46.366Z,6.83
2019-01-03T02:54:25.152Z,8.30
2019-01-03T02:57:18.398Z,7.83
2019-01-03T03:00:14.171Z,8.77
2019-01-03T03:03:06.384Z,8.50
2019-01-03T03:06:01.851Z,7.67
2019-01-03T03:08:57.338Z,8.17
2019-01-03T03:11:36.845Z,8.53
2019-01-03T03:14:15.658Z,7.33
2019-01-03T03:17:08.454Z,8.93
2019-01-03T03:19:52.015Z,9.97
2019-01-03T03:22:44.752Z,10.63
2019-01-03T03:25:23.309Z,8.07
2019-01-03T03:28:02.069Z,8.17
2019-01-03T03:30:40.429Z,8.40
2019-01-03T03:33:19.839Z,9.00
2019-01-03T03:36:15.239Z,8.13
2019-01-03T03:39:13.520Z,8.17
2019-01-03T03:42:22.383Z,10.32
2019-01-03T03:45:16.840Z,7.73
2019-01-03T03:48:11.494Z,9.32
2019-01-03T03:51:04.096Z,8.67
2019-01-03T03:53:52.251Z,8.57
2019-01-03T03:56:38.325Z,9.53
2019-01-03T03:59:36.803Z,10.33
2019-01-03T04:02:44.402Z,10.15
2019-01-03T04:05:53.110Z,10.63
2019-01-03T04:08:44.032Z,8.90
2019-01-03T04:11:22.549Z,8.90
2019-01-03T04:14:16.866Z,8.50
2019-01-03T04:17:13.240Z,8.80
2019-01-03T04:20:10.947Z,9.55
2019-01-03T04:23:17.471Z,10.90
2019-01-03T04:25:56.691Z,8.17
2019-01-03T04:28:49.676Z,7.60
2019-01-03T04:31:28.320Z,7.57
2019-01-03T04:34:23.736Z,8.10
2019-01-03T04:37:12.894Z,10.35
2019-01-03T04:40:01.868Z,11.75
2019-01-03T04:42:55.264Z,9.97
2019-01-03T04:45:51.667Z,11.33
2019-01-03T04:48:30.252Z,10.88
2019-01-03T04:51:23.647Z,9.80
2019-01-03T04:54:20.599Z,10.73
2019-01-03T04:57:10.702Z,9.75
2019-01-03T05:00:04.464Z,8.03
2019-01-03T05:03:10.629Z,8.93
2019-01-03T05:06:14.949Z,9.80
2019-01-03T05:09:04.160Z,8.77
2019-01-03T05:11:42.905Z,8.77
2019-01-03T05:14:35.897Z,9.20
2019-01-03T05:17:30.587Z,9.40
2019-01-03T05:20:31.101Z,25.50
2019-01-03T05:23:10.731Z,13.73
2019-01-03T05:26:03.207Z,10.83
2019-01-03T05:28:57.492Z,9.97
2019-01-03T05:31:51.156Z,12.15
2019-01-03T05:34:43.819Z,9.53
2019-01-03T05:37:36.260Z,9.20
2019-01-03T05:40:37.263Z,12.10
2019-01-03T05:43:26.391Z,11.30
2019-01-03T05:46:17.074Z,13.13
2019-01-03T05:49:09.512Z,10.90
2019-01-03T05:51:48.676Z,10.67
2019-01-03T05:54:43.137Z,9.33
2019-01-03T05:57:51.487Z,12.57
2019-01-03T06:00:40.669Z,11.65
2019-01-03T06:03:34.253Z,10.63
2019-01-03T06:06:36.663Z,12.85
2019-01-03T06:09:15.370Z,11.03
2019-01-03T06:11:59.023Z,10.17
2019-01-03T06:14:39.399Z,9.03
2019-01-03T06:17:33.396Z,11.38
2019-01-03T06:20:42.210Z,10.40
2019-01-03T06:23:36.987Z,10.00
2019-01-03T06:26:15.768Z,13.10
2019-01-03T06:29:08.970Z,11.00
2019-01-03T06:32:03.477Z,10.53
2019-01-03T06:34:59.745Z,12.67
2019-01-03T06:37:54.082Z,12.80
2019-01-03T06:40:47.057Z,9.77
2019-01-03T06:43:42.041Z,12.10
2019-01-03T06:46:50.668Z,12.98
2019-01-03T06:49:41.650Z,11.17
2019-01-03T06:52:41.286Z,11.50
2019-01-03T06:55:23.693Z,12.67
2019-01-03T06:58:02.713Z,12.53
2019-01-03T07:00:51.135Z,13.33
2019-01-03T07:03:31.370Z,15.00
2019-01-03T07:06:24.178Z,13.87
2019-01-03T07:09:17.011Z,12.50
2019-01-03T07:12:07.630Z,12.90
2019-01-03T07:14:58.846Z,13.43
2019-01-03T07:17:55.590Z,13.77
2019-01-03T07:20:59.706Z,17.17
2019-01-03T07:23:48.904Z,12.83
2019-01-03T07:26:27.620Z,15.03
2019-01-03T07:29:21.173Z,13.77
2019-01-03T07:32:15.051Z,13.60
2019-01-03T07:34:53.754Z,14.63
2019-01-03T07:37:32.161Z,13.67
2019-01-03T07:40:20.326Z,13.93
2019-01-03T07:43:16.051Z,14.17
2019-01-03T07:46:23.225Z,16.02
2019-01-03T07:49:29.189Z,14.93
2019-01-03T07:52:08.056Z,12.47
2019-01-03T07:54:59.083Z,11.90
2019-01-03T07:57:54.194Z,12.43
2019-01-03T08:00:45.812Z,12.17
2019-01-03T08:03:26.153Z,11.80
2019-01-03T08:06:19.547Z,12.80
2019-01-03T08:08:58.346Z,13.23
2019-01-03T08:11:37.045Z,15.60
2019-01-03T08:14:15.673Z,14.73
2019-01-03T08:17:11.354Z,11.93
2019-01-03T08:20:02.773Z,11.73
2019-01-03T08:22:41.378Z,12.23
2019-01-03T08:25:35.167Z,12.40
2019-01-03T08:28:42.150Z,13.45
2019-01-03T08:31:48.524Z,13.75
2019-01-03T08:34:56.015Z,13.10
2019-01-03T08:37:56.548Z,12.82
2019-01-03T08:40:49.811Z,12.50
2019-01-03T08:43:40.217Z,12.23
2019-01-03T08:46:39.669Z,9.57
2019-01-03T08:49:34.614Z,9.47
2019-01-03T08:52:38.735Z,10.38
2019-01-03T08:55:45.659Z,10.50
2019-01-03T08:58:29.530Z,9.53
2019-01-03T09:01:18.929Z,9.50
2019-01-03T09:03:58.156Z,8.43
2019-01-03T09:06:36.768Z,8.13
2019-01-03T09:09:30.043Z,8.60
2019-01-03T09:12:09.491Z,9.37
2019-01-03T09:15:04.285Z,10.85
2019-01-03T09:17:49.967Z,10.23
2019-01-03T09:20:39.652Z,10.43
2019-01-03T09:23:18.879Z,10.33
2019-01-03T09:26:15.417Z,11.10
2019-01-03T09:29:12.162Z,15.13
2019-01-03T09:32:07.883Z,13.60
2019-01-03T09:34:46.951Z,14.97
2019-01-03T09:37:33.481Z,14.43
2019-01-03T09:40:28.827Z,13.33
2019-01-03T09:43:29.155Z,13.30
2019-01-03T09:46:02.166Z,12.17
2019-01-03T09:48:35.614Z,10.83
2019-01-03T09:51:08.444Z,9.07
2019-01-03T09:53:41.433Z,8.80
2019-01-03T09:56:14.845Z,9.10
2019-01-03T09:58:48.721Z,8.80
2019-01-03T10:01:23.312Z,9.82
2019-01-03T10:03:59.687Z,8.13
2019-01-03T10:06:38.144Z,9.00
2019-01-03T10:09:11.607Z,9.65
2019-01-03T10:11:48.929Z,10.80
2019-01-03T10:14:21.984Z,12.25
2019-01-03T10:16:55.121Z,12.97
2019-01-03T10:19:28.152Z,13.30
2019-01-03T10:22:01.349Z,12.97
2019-01-03T10:24:37.941Z,12.00
2019-01-03T10:27:12.242Z,12.47
2019-01-03T10:29:45.174Z,12.70
2019-01-03T10:32:18.635Z,12.90
2019-01-03T10:34:56.244Z,11.60
2019-01-03T10:37:29.247Z,10.47
2019-01-03T10:40:02.886Z,11.63
2019-01-03T10:42:36.416Z,11.25
2019-01-03T10:45:13.874Z,9.57
2019-01-03T10:47:49.655Z,10.63
2019-01-03T10:50:23.672Z,11.20
2019-01-03T10:52:57.264Z,11.23
2019-01-03T10:55:30.313Z,11.40
2019-01-03T10:58:04.469Z,11.50
2019-01-03T11:00:38.942Z,11.97
2019-01-03T11:03:13.752Z,11.63
2019-01-03T11:05:49.538Z,11.43
2019-01-03T11:08:25.831Z,11.50
2019-01-03T11:11:02.182Z,12.30
2019-01-03T11:13:36.800Z,11.93
2019-01-03T11:16:20.094Z,13.45
2019-01-03T11:18:55.431Z,13.03
2019-01-03T11:21:31.247Z,12.70
2019-01-03T11:24:09.086Z,10.60
2019-01-03T11:26:43.398Z,11.37
2019-01-03T11:29:19.313Z,12.07
2019-01-03T11:31:56.368Z,11.63
2019-01-03T11:34:29.262Z,12.00
2019-01-03T11:37:04.670Z,11.77
2019-01-03T11:39:37.805Z,11.70
2019-01-03T11:42:11.685Z,12.43
2019-01-03T11:44:44.789Z,11.60
2019-01-03T11:47:19.659Z,13.30
2019-01-03T11:49:53.171Z,12.20
2019-01-03T11:52:26.109Z,12.10
2019-01-03T11:54:59.774Z,11.80
2019-01-03T11:57:33.748Z,11.83
2019-01-03T12:00:10.401Z,11.60
2019-01-03T12:02:46.108Z,11.67
2019-01-03T12:05:20.950Z,13.77
2019-01-03T12:07:55.031Z,12.87
2019-01-03T12:10:29.615Z,14.07
2019-01-03T12:13:03.588Z,13.70
2019-01-03T12:15:38.006Z,13.47
2019-01-03T12:18:12.343Z,14.27
2019-01-03T12:20:46.858Z,12.57
2019-01-03T12:23:22.211Z,12.47
2019-01-03T12:25:56.487Z,12.37
2019-01-03T12:28:30.649Z,12.20
2019-01-03T12:31:06.792Z,12.80
2019-01-03T12:33:40.616Z,11.50
2019-01-03T12:36:15.224Z,9.80
2019-01-03T12:39:08.973Z,9.20
2019-01-03T12:41:44.831Z,7.90
2019-01-03T12:44:21.278Z,9.77
2019-01-03T12:46:54.754Z,10.60
2019-01-03T12:49:28.112Z,9.73
2019-01-03T12:52:03.289Z,9.73
2019-01-03T12:54:36.739Z,7.07
2019-01-03T12:57:10.480Z,5.80
2019-01-03T12:59:43.587Z,6.53
2019-01-03T13:02:17.082Z,5.30
2019-01-03T13:04:51.858Z,4.83
2019-01-03T13:07:25.924Z,3.70
2019-01-03T13:10:00.499Z,3.43
2019-01-03T13:12:33.775Z,3.00
2019-01-03T13:15:12.128Z,2.60
2019-01-03T13:17:49.060Z,2.70
2019-01-03T13:20:21.960Z,2.80
2019-01-03T13:22:56.926Z,2.33
2019-01-03T13:25:31.470Z,2.80
2019-01-03T13:28:05.536Z,3.47
2019-01-03T13:30:42.323Z,2.70
2019-01-03T13:33:15.678Z,3.23
2019-01-03T13:36:04.980Z,2.53
2019-01-03T13:38:42.369Z,2.30
2019-01-03T13:41:16.050Z,2.67
2019-01-03T13:43:49.158Z,2.40
2019-01-03T13:46:22.180Z,2.70
2019-01-03T13:48:57.989Z,2.53
2019-01-03T13:51:31.847Z,2.90
2019-01-03T13:54:08.049Z,2.90
2019-01-03T13:56:41.980Z,3.07
2019-01-03T13:59:15.982Z,3.23
2019-01-03T14:01:50.062Z,4.73
2019-01-03T14:04:39.747Z,4.77
2019-01-03T14:07:17.389Z,4.37
2019-01-03T14:09:50.454Z,5.07
2019-01-03T14:12:26.545Z,5.67
2019-01-03T14:15:00.213Z,4.13
2019-01-03T14:17:39.436Z,8.23
2019-01-03T14:20:16.315Z,3.23
2019-01-03T14:22:51.294Z,2.90
2019-01-03T14:25:24.716Z,3.37
2019-01-03T14:27:59.502Z,2.70
2019-01-03T14:30:32.552Z,4.47
2019-01-03T14:33:08.003Z,2.97
2019-01-03T14:35:42.040Z,4.20
2019-01-03T14:38:16.989Z,2.60
2019-01-03T14:40:50.383Z,3.10
2019-01-03T14:43:25.539Z,3.03
2019-01-03T14:45:59.226Z,2.80
2019-01-03T14:48:35.492Z,3.60
2019-01-03T14:51:10.372Z,3.30
2019-01-03T14:53:44.483Z,3.17
2019-01-03T14:56:19.713Z,3.53
2019-01-03T14:58:53.251Z,3.27
2019-01-03T15:01:27.114Z,5.03
2019-01-03T15:04:00.922Z,4.20
2019-01-03T15:06:34.458Z,4.50
2019-01-03T15:09:08.704Z,4.50
2019-01-03T15:11:42.565Z,5.90
2019-01-03T15:14:16.616Z,5.43
2019-01-03T15:16:51.378Z,5.07
2019-01-03T15:19:27.515Z,5.90
2019-01-03T15:22:00.727Z,6.30
2019-01-03T15:24:35.464Z,5.43
2019-01-03T15:27:11.906Z,6.43
2019-01-03T15:29:46.529Z,6.10
2019-01-03T15:32:19.629Z,5.77
2019-01-03T15:34:58.431Z,5.63
2019-01-03T15:37:31.539Z,5.60
2019-01-03T15:40:07.047Z,6.37
2019-01-03T15:42:43.599Z,5.67
2019-01-03T15:45:17.642Z,5.33
2019-01-03T15:47:52.531Z,3.80
2019-01-03T15:50:26.851Z,4.20
2019-01-03T15:52:59.867Z,4.03
2019-01-03T15:55:33.443Z,4.13
2019-01-03T15:58:07.677Z,4.07
2019-01-03T16:00:42.582Z,4.23
2019-01-03T16:03:17.353Z,5.20
2019-01-03T16:05:51.526Z,5.53
2019-01-03T16:08:24.881Z,4.63
2019-01-03T16:11:00.943Z,4.70
2019-01-03T16:13:35.202Z,4.63
2019-01-03T16:16:09.151Z,5.20
2019-01-03T16:18:42.380Z,5.85
2019-01-03T16:21:16.279Z,5.40
2019-01-03T16:23:50.655Z,4.83
2019-01-03T16:26:25.287Z,5.07
2019-01-03T16:29:00.980Z,5.20
2019-01-03T16:31:35.522Z,5.57
2019-01-03T16:34:09.017Z,5.30
2019-01-03T16:36:45.317Z,5.30
2019-01-03T16:39:20.276Z,5.82
2019-01-03T16:41:56.381Z,5.70
2019-01-03T16:44:32.430Z,4.70
2019-01-03T16:47:07.502Z,5.23
2019-01-03T16:49:41.863Z,4.77
2019-01-03T16:52:17.316Z,4.10
2019-01-03T16:54:50.321Z,4.90
2019-01-03T16:57:25.364Z,4.37
2019-01-03T16:59:59.330Z,4.33
2019-01-03T17:02:32.495Z,5.03
2019-01-03T17:05:09.823Z,4.80
2019-01-03T17:07:51.391Z,4.73
2019-01-03T17:10:25.533Z,4.10
2019-01-03T17:13:01.777Z,5.27
2019-01-03T17:15:37.593Z,4.80
2019-01-03T17:18:10.845Z,4.93
2019-01-03T17:20:49.599Z,6.40
2019-01-03T17:23:24.226Z,5.60
2019-01-03T17:25:58.511Z,5.57
2019-01-03T17:28:32.908Z,5.67
2019-01-03T17:31:05.991Z,5.75
2019-01-03T17:33:40.003Z,5.10
2019-01-03T17:36:13.549Z,4.50
2019-01-03T17:38:47.180Z,4.80
2019-01-03T17:41:21.852Z,4.57
2019-01-03T17:43:59.238Z,4.77
2019-01-03T17:46:32.355Z,4.73
2019-01-03T17:49:08.825Z,5.40
2019-01-03T17:51:48.279Z,4.60
2019-01-03T17:54:24.534Z,4.77
2019-01-03T17:56:57.812Z,5.32
2019-01-03T17:59:31.999Z,4.97
2019-01-03T18:02:07.679Z,4.90
2019-01-03T18:04:41.764Z,5.47
2019-01-03T18:07:15.675Z,5.65
2019-01-03T18:09:56.253Z,5.57
2019-01-03T18:12:29.252Z,5.77
2019-01-03T18:15:04.620Z,6.13
2019-01-03T18:17:38.099Z,6.43
2019-01-03T18:20:18.494Z,6.73
2019-01-03T18:22:51.830Z,7.00
2019-01-03T18:25:27.714Z,7.55
2019-01-03T18:28:01.922Z,7.40
2019-01-03T18:30:37.358Z,7.00
2019-01-03T18:33:16.134Z,7.13
2019-01-03T18:35:50.861Z,6.97
2019-01-03T18:38:24.664Z,8.40
2019-01-03T18:40:59.015Z,9.43
2019-01-03T18:43:35.587Z,10.07
2019-01-03T18:46:09.005Z,8.80
2019-01-03T18:48:42.762Z,9.37
2019-01-03T18:51:16.640Z,10.80
2019-01-03T18:53:50.757Z,9.77
2019-01-03T18:56:25.544Z,10.50
2019-01-03T18:58:59.382Z,10.97
2019-01-03T19:01:33.223Z,10.40
2019-01-03T19:04:06.810Z,10.67
2019-01-03T19:06:39.831Z,9.63
2019-01-03T19:09:12.817Z,9.07
2019-01-03T19:11:46.215Z,7.97
2019-01-03T19:14:19.269Z,6.73
2019-01-03T19:16:52.910Z,7.53
2019-01-03T19:19:27.032Z,7.10
2019-01-03T19:22:00.266Z,7.70
2019-01-03T19:24:33.480Z,7.90
2019-01-03T19:27:07.320Z,8.20
2019-01-03T19:29:47.657Z,9.57
2019-01-03T19:32:26.617Z,8.10
2019-01-03T19:35:00.240Z,8.60
2019-01-03T19:37:33.334Z,7.13
2019-01-03T19:40:11.483Z,6.83
2019-01-03T19:42:47.581Z,7.57
2019-01-03T19:45:23.440Z,8.30
2019-01-03T19:48:05.788Z,7.50
2019-01-03T19:50:42.681Z,7.30
2019-01-03T19:53:20.589Z,7.47
2019-01-03T19:55:56.924Z,7.60
2019-01-03T19:58:31.819Z,7.53
2019-01-03T20:01:06.203Z,8.70
2019-01-03T20:03:40.890Z,8.63
2019-01-03T20:06:15.851Z,8.93
2019-01-03T20:08:52.791Z,8.10
2019-01-03T20:11:25.717Z,7.53
2019-01-03T20:13:58.904Z,7.77
2019-01-03T20:16:32.764Z,8.00
2019-01-03T20:19:10.070Z,7.87
2019-01-03T20:21:43.606Z,7.07
2019-01-03T20:24:18.961Z,8.17
2019-01-03T20:26:52.335Z,9.07
2019-01-03T20:29:25.311Z,9.33
2019-01-03T20:31:58.488Z,8.80
2019-01-03T20:34:33.721Z,10.88
2019-01-03T20:37:09.870Z,9.30
2019-01-03T20:39:47.415Z,8.70
2019-01-03T20:42:21.925Z,10.03
2019-01-03T20:44:56.959Z,10.10
2019-01-03T20:47:32.346Z,8.83
2019-01-03T20:50:06.761Z,8.93
2019-01-03T20:52:41.782Z,10.55
2019-01-03T20:55:16.762Z,8.67
2019-01-03T20:57:50.850Z,8.67
2019-01-03T21:00:30.308Z,11.00
2019-01-03T21:03:06.506Z,8.77
2019-01-03T21:05:40.442Z,9.50
2019-01-03T21:08:18.933Z,8.10
2019-01-03T21:10:52.909Z,9.57
2019-01-03T21:13:28.027Z,10.30
2019-01-03T21:16:02.447Z,13.05
2019-01-03T21:18:35.635Z,12.33
2019-01-03T21:21:09.197Z,10.57
2019-01-03T21:23:42.808Z,11.03
2019-01-03T21:26:16.779Z,10.70
2019-01-03T21:28:51.744Z,11.57
2019-01-03T21:31:26.088Z,11.80
2019-01-03T21:34:00.152Z,12.40
2019-01-03T21:36:33.998Z,13.83
2019-01-03T21:39:11.114Z,14.00
2019-01-03T21:41:45.275Z,14.10
2019-01-03T21:44:19.293Z,13.87
2019-01-03T21:46:53.514Z,13.37
2019-01-03T21:49:33.627Z,14.52
2019-01-03T21:52:09.365Z,12.80
2019-01-03T21:54:44.361Z,11.17
2019-01-03T21:57:18.304Z,11.73
2019-01-03T21:59:53.072Z,9.60
2019-01-03T22:02:27.853Z,9.90
2019-01-03T22:05:07.195Z,9.43
2019-01-03T22:07:42.050Z,9.43
2019-01-03T22:10:15.846Z,9.83
2019-01-03T22:12:51.550Z,11.00
2019-01-03T22:15:24.617Z,10.30
2019-01-03T22:18:00.031Z,11.40
2019-01-03T22:20:37.163Z,11.77
2019-01-03T22:23:13.470Z,12.07
2019-01-03T22:25:47.404Z,13.13
2019-01-03T22:28:22.177Z,13.80
2019-01-03T22:30:56.878Z,11.90
2019-01-03T22:33:34.387Z,14.18
2019-01-03T22:36:08.006Z,13.33
2019-01-03T22:38:41.153Z,12.37
2019-01-03T22:41:15.581Z,11.43
2019-01-03T22:43:50.726Z,12.27
2019-01-03T22:46:24.382Z,10.77
2019-01-03T22:48:59.548Z,10.83
2019-01-03T22:51:34.415Z,10.43
2019-01-03T22:54:09.017Z,10.77
2019-01-03T22:56:44.038Z,10.80
2019-01-03T22:59:17.218Z,12.03
2019-01-03T23:01:51.743Z,12.53
2019-01-03T23:04:25.524Z,13.20
2019-01-03T23:06:58.507Z,14.13
2019-01-03T23:09:33.853Z,14.83
2019-01-03T23:12:08.046Z,15.73
2019-01-03T23:14:41.095Z,14.67
2019-01-03T23:17:14.497Z,16.30
2019-01-03T23:19:48.622Z,16.90
2019-01-03T23:22:22.502Z,17.27
2019-01-03T23:24:57.226Z,18.95
2019-01-03T23:27:30.109Z,19.33
2019-01-03T23:30:10.730Z,20.83
2019-01-03T23:32:45.726Z,22.57
2019-01-03T23:35:18.706Z,23.33
2019-01-03T23:37:52.628Z,24.13
2019-01-03T23:40:27.441Z,24.70
2019-01-03T23:43:00.287Z,27.07
2019-01-03T23:45:35.715Z,29.37
2019-01-03T23:48:08.768Z,29.03
2019-01-03T23:50:41.737Z,29.20
2019-01-03T23:53:14.962Z,27.50
2019-01-03T23:55:54.830Z,29.53
2019-01-03T23:58:29.461Z,26.93
